createdAt,value
2022-11-05T00:00:01.887Z,99.9
2022-11-05T00:01:01.147Z,99.9
2022-11-05T00:02:01.264Z,99.9
2022-11-05T00:03:01.883Z,99.9
2022-11-05T00:04:02.065Z,99.9
2022-11-05T00:05:00.469Z,99.9
2022-11-05T00:06:00.138Z,99.9
2022-11-05T00:06:59.714Z,99.9
2022-11-05T00:08:02.405Z,99.9
2022-11-05T00:09:02.125Z,99.9
2022-11-05T00:10:01.511Z,99.9
2022-11-05T00:11:01.052Z,99.9
2022-11-05T00:12:01.060Z,99.9
2022-11-05T00:13:01.697Z,99.9
2022-11-05T00:14:01.325Z,99.9
2022-11-05T00:15:01.965Z,99.9
2022-11-05T00:16:01.819Z,99.9
2022-11-05T00:17:01.208Z,99.9
2022-11-05T00:18:01.191Z,99.9
2022-11-05T00:19:01.925Z,99.9
2022-11-05T00:20:01.794Z,99.9
2022-11-05T00:21:01.064Z,99.9
2022-11-05T00:22:01.055Z,99.9
2022-11-05T00:23:01.050Z,99.9
2022-11-05T00:24:01.451Z,99.9
2022-11-05T00:25:01.427Z,99.9
2022-11-05T00:26:02.565Z,99.9
2022-11-05T00:27:00.408Z,99.9
2022-11-05T00:27:59.958Z,99.9
2022-11-05T00:28:59.622Z,99.9
2022-11-05T00:30:01.208Z,99.9
2022-11-05T00:31:01.963Z,99.9
2022-11-05T00:32:01.486Z,99.9
2022-11-05T00:33:02.487Z,99.9
2022-11-05T00:34:01.336Z,99.9
2022-11-05T00:35:04.019Z,99.9
2022-11-05T00:36:04.035Z,99.9
2022-11-05T00:37:01.845Z,99.9
2022-11-05T00:38:03.158Z,99.9
2022-11-05T00:39:01.126Z,99.9
2022-11-05T00:40:01.148Z,99.9
2022-11-05T00:41:01.127Z,99.9
2022-11-05T00:42:01.111Z,99.9
2022-11-05T00:43:01.288Z,99.9
2022-11-05T00:44:01.531Z,99.9
2022-11-05T00:45:01.252Z,99.9
2022-11-05T00:46:01.040Z,99.9
2022-11-05T00:47:01.046Z,99.9
2022-11-05T00:48:01.046Z,99.9
2022-11-05T00:49:01.117Z,99.9
2022-11-05T00:50:01.152Z,99.9
2022-11-05T00:51:03.803Z,99.9
2022-11-05T00:52:01.455Z,99.9
2022-11-05T00:53:01.473Z,99.9
2022-11-05T00:54:03.882Z,99.9
2022-11-05T00:55:01.084Z,99.9
2022-11-05T00:56:01.060Z,99.9
2022-11-05T00:57:04.642Z,99.9
2022-11-05T00:58:01.296Z,99.9
2022-11-05T00:59:01.113Z,99.9
2022-11-05T01:00:01.117Z,99.9
2022-11-05T01:01:01.530Z,99.9
2022-11-05T01:02:01.206Z,99.9
2022-11-05T01:03:01.051Z,99.9
2022-11-05T01:04:01.096Z,99.9
2022-11-05T01:05:01.064Z,99.9
2022-11-05T01:06:04.110Z,99.9
2022-11-05T01:07:01.964Z,99.9
2022-11-05T01:08:01.063Z,99.9
2022-11-05T01:09:01.425Z,99.9
2022-11-05T01:10:01.611Z,99.9
2022-11-05T01:11:08.162Z,99.9
2022-11-05T01:12:01.552Z,99.9
2022-11-05T01:13:00.892Z,99.9
2022-11-05T01:14:01.100Z,99.9
2022-11-05T01:15:01.356Z,99.9
2022-11-05T01:16:12.040Z,99.9
2022-11-05T01:17:03.942Z,99.9
2022-11-05T01:18:02.601Z,99.9
2022-11-05T01:19:01.152Z,99.9
2022-11-05T01:20:01.536Z,99.9
2022-11-05T01:21:15.357Z,99.9
2022-11-05T01:22:01.102Z,99.9
2022-11-05T01:23:01.225Z,99.9
2022-11-05T01:24:01.375Z,99.9
2022-11-05T01:25:01.472Z,99.9
2022-11-05T01:26:01.194Z,99.9
2022-11-05T01:27:01.088Z,99.9
2022-11-05T01:28:01.101Z,99.9
2022-11-05T01:29:01.139Z,99.9
2022-11-05T01:30:01.051Z,99.9
2022-11-05T01:31:01.106Z,99.9
2022-11-05T01:32:01.122Z,99.9
2022-11-05T01:33:03.873Z,99.9
2022-11-05T01:34:01.367Z,99.9
2022-11-05T01:35:02.059Z,99.9
2022-11-05T01:36:02.100Z,99.9
2022-11-05T01:37:01.160Z,99.9
2022-11-05T01:38:02.269Z,99.9
2022-11-05T01:39:01.159Z,99.9
2022-11-05T01:40:01.843Z,99.9
2022-11-05T01:41:01.059Z,99.9
2022-11-05T01:42:01.232Z,99.9
2022-11-05T01:43:01.440Z,99.9
2022-11-05T01:44:01.090Z,99.9
2022-11-05T01:45:01.050Z,99.9
2022-11-05T01:46:01.102Z,99.9
2022-11-05T01:47:01.107Z,99.9
2022-11-05T01:48:01.726Z,99.9
2022-11-05T01:49:03.496Z,99.9
2022-11-05T01:50:02.315Z,99.9
2022-11-05T01:51:01.676Z,99.9
2022-11-05T01:52:02.355Z,99.9
2022-11-05T01:53:01.535Z,99.9
2022-11-05T01:54:01.156Z,99.9
2022-11-05T01:55:02.088Z,99.9
2022-11-05T01:56:01.782Z,99.9
2022-11-05T01:57:01.868Z,99.9
2022-11-05T01:58:01.077Z,99.9
2022-11-05T01:59:01.131Z,99.9
2022-11-05T02:00:01.115Z,99.9
2022-11-05T02:01:02.427Z,99.9
2022-11-05T02:02:01.408Z,99.9
2022-11-05T02:03:01.268Z,99.9
2022-11-05T02:04:01.452Z,99.9
2022-11-05T02:05:01.129Z,99.9
2022-11-05T02:06:01.103Z,99.9
2022-11-05T02:07:01.142Z,99.9
2022-11-05T02:08:01.074Z,99.9
2022-11-05T02:09:01.436Z,99.9
2022-11-05T02:10:02.041Z,99.9
2022-11-05T02:11:01.188Z,99.9
2022-11-05T02:12:01.978Z,99.9
2022-11-05T02:13:01.154Z,99.9
2022-11-05T02:14:01.294Z,99.9
2022-11-05T02:15:01.924Z,99.9
2022-11-05T02:16:01.057Z,99.9
2022-11-05T02:17:01.315Z,99.9
2022-11-05T02:18:02.492Z,99.9
2022-11-05T02:19:01.114Z,99.9
2022-11-05T02:20:01.108Z,99.9
2022-11-05T02:21:01.126Z,99.9
2022-11-05T02:22:01.055Z,99.9
2022-11-05T02:23:01.156Z,99.9
2022-11-05T02:24:01.148Z,99.9
2022-11-05T02:25:01.385Z,99.9
2022-11-05T02:26:01.148Z,99.9
2022-11-05T02:27:01.325Z,99.9
2022-11-05T02:28:01.453Z,99.9
2022-11-05T02:29:01.130Z,99.9
2022-11-05T02:30:01.088Z,99.9
2022-11-05T02:31:01.045Z,99.9
2022-11-05T02:32:01.704Z,99.9
2022-11-05T02:33:01.043Z,99.9
2022-11-05T02:34:01.038Z,99.9
2022-11-05T02:35:01.113Z,99.9
2022-11-05T02:36:01.111Z,99.9
2022-11-05T02:37:01.504Z,99.9
2022-11-05T02:38:01.068Z,99.9
2022-11-05T02:39:01.154Z,99.9
2022-11-05T02:40:01.549Z,99.9
2022-11-05T02:41:01.776Z,99.9
2022-11-05T02:42:05.011Z,99.9
2022-11-05T02:43:01.469Z,99.9
2022-11-05T02:44:02.505Z,99.9
2022-11-05T02:45:01.281Z,99.9
2022-11-05T02:46:01.880Z,99.9
2022-11-05T02:47:03.070Z,99.9
2022-11-05T02:48:01.160Z,99.9
2022-11-05T02:49:01.091Z,99.9
2022-11-05T02:50:02.183Z,99.9
2022-11-05T02:51:01.064Z,99.9
2022-11-05T02:52:06.612Z,99.9
2022-11-05T02:53:01.113Z,99.9
2022-11-05T02:54:01.050Z,99.9
2022-11-05T02:55:01.054Z,99.9
2022-11-05T02:56:01.432Z,99.9
2022-11-05T02:57:10.055Z,99.9
2022-11-05T02:58:01.188Z,99.9
2022-11-05T02:59:01.307Z,99.9
2022-11-05T03:00:01.442Z,99.9
2022-11-05T03:01:02.103Z,99.9
2022-11-05T03:02:13.354Z,99.9
2022-11-05T03:03:01.171Z,99.9
2022-11-05T03:04:01.789Z,99.9
2022-11-05T03:05:01.093Z,99.9
2022-11-05T03:06:01.218Z,99.9
2022-11-05T03:07:16.796Z,99.9
2022-11-05T03:08:01.057Z,99.9
2022-11-05T03:09:00.669Z,99.9
2022-11-05T03:10:00.291Z,99.9
2022-11-05T03:11:00.072Z,99.9
2022-11-05T03:11:59.752Z,99.9
2022-11-05T03:13:01.429Z,99.9
2022-11-05T03:14:01.063Z,99.9
2022-11-05T03:15:01.468Z,99.9
2022-11-05T03:16:01.174Z,99.9
2022-11-05T03:17:01.078Z,99.9
2022-11-05T03:18:01.093Z,99.9
2022-11-05T03:19:01.041Z,99.9
2022-11-05T03:20:01.138Z,99.9
2022-11-05T03:21:01.097Z,99.9
2022-11-05T03:22:01.069Z,99.9
2022-11-05T03:23:01.444Z,99.9
2022-11-05T03:24:00.646Z,99.9
2022-11-05T03:25:00.306Z,99.9
2022-11-05T03:25:59.881Z,99.9
2022-11-05T03:26:59.498Z,99.9
2022-11-05T03:28:01.169Z,99.9
2022-11-05T03:29:01.782Z,99.9
2022-11-05T03:30:01.155Z,99.9
2022-11-05T03:31:01.175Z,99.9
2022-11-05T03:32:01.803Z,99.9
2022-11-05T03:33:00.869Z,99.9
2022-11-05T03:34:02.065Z,99.9
2022-11-05T03:35:01.839Z,99.9
2022-11-05T03:36:01.113Z,99.9
2022-11-05T03:37:01.104Z,99.9
2022-11-05T03:38:01.119Z,99.9
2022-11-05T03:39:00.996Z,99.9
2022-11-05T03:40:01.117Z,99.9
2022-11-05T03:41:01.119Z,99.9
2022-11-05T03:42:01.149Z,99.9
2022-11-05T03:43:01.528Z,99.9
2022-11-05T03:44:01.275Z,99.9
2022-11-05T03:45:04.064Z,99.9
2022-11-05T03:46:01.215Z,99.9
2022-11-05T03:47:01.466Z,99.9
2022-11-05T03:48:01.158Z,99.9
2022-11-05T03:49:01.125Z,99.9
2022-11-05T03:50:01.075Z,99.9
2022-11-05T03:51:01.085Z,99.9
2022-11-05T03:52:01.086Z,99.9
2022-11-05T03:53:01.061Z,99.9
2022-11-05T03:54:01.099Z,99.9
2022-11-05T03:55:01.119Z,99.9
2022-11-05T03:56:01.117Z,99.9
2022-11-05T03:57:01.067Z,99.9
2022-11-05T03:58:01.134Z,99.9
2022-11-05T03:59:01.062Z,99.9
2022-11-05T04:00:01.151Z,99.9
2022-11-05T04:01:01.521Z,99.9
2022-11-05T04:02:01.387Z,99.9
2022-11-05T04:03:01.274Z,99.9
2022-11-05T04:04:01.964Z,99.9
2022-11-05T04:05:00.949Z,99.9
2022-11-05T04:06:01.132Z,99.9
2022-11-05T04:07:01.469Z,99.9
2022-11-05T04:08:01.789Z,99.9
2022-11-05T04:09:01.095Z,99.9
2022-11-05T04:10:01.103Z,99.9
2022-11-05T04:11:01.893Z,99.9
2022-11-05T04:12:01.826Z,99.9
2022-11-05T04:13:01.511Z,99.9
2022-11-05T04:14:02.077Z,99.9
2022-11-05T04:15:01.095Z,99.9
2022-11-05T04:16:01.074Z,99.9
2022-11-05T04:17:01.063Z,99.9
2022-11-05T04:18:01.717Z,99.9
2022-11-05T04:19:01.061Z,99.9
2022-11-05T04:20:01.385Z,99.9
2022-11-05T04:21:01.387Z,99.9
2022-11-05T04:22:02.513Z,99.9
2022-11-05T04:23:02.879Z,99.9
2022-11-05T04:24:01.703Z,99.9
2022-11-05T04:25:01.379Z,99.9
2022-11-05T04:26:02.641Z,99.9
2022-11-05T04:27:01.318Z,99.9
2022-11-05T04:28:05.868Z,99.9
2022-11-05T04:29:05.228Z,99.9
2022-11-05T04:30:01.132Z,99.9
2022-11-05T04:31:01.129Z,99.9
2022-11-05T04:32:01.130Z,99.9
2022-11-05T04:33:08.701Z,99.9
2022-11-05T04:34:01.142Z,99.9
2022-11-05T04:35:01.319Z,99.9
2022-11-05T04:36:01.059Z,99.9
2022-11-05T04:37:01.076Z,99.9
2022-11-05T04:38:11.599Z,99.9
2022-11-05T04:39:01.723Z,99.9
2022-11-05T04:40:01.775Z,99.9
2022-11-05T04:41:01.763Z,99.9
2022-11-05T04:42:01.180Z,99.9
2022-11-05T04:43:15.317Z,99.9
2022-11-05T04:44:01.106Z,99.9
2022-11-05T04:45:01.123Z,99.9
2022-11-05T04:46:01.131Z,99.9
2022-11-05T04:47:01.727Z,99.9
2022-11-05T04:48:17.351Z,99.9
2022-11-05T04:49:01.674Z,99.9
2022-11-05T04:50:01.168Z,99.9
2022-11-05T04:51:01.159Z,99.9
2022-11-05T04:52:01.159Z,99.9
2022-11-05T04:53:01.903Z,99.9
2022-11-05T04:54:01.451Z,99.9
2022-11-05T04:55:00.894Z,99.9
2022-11-05T04:56:01.103Z,99.9
2022-11-05T04:57:01.092Z,99.9
2022-11-05T04:58:01.112Z,99.9
2022-11-05T04:59:01.392Z,99.9
2022-11-05T05:00:01.488Z,99.9
2022-11-05T05:01:01.189Z,99.9
2022-11-05T05:02:01.198Z,99.9
2022-11-05T05:03:01.167Z,99.9
2022-11-05T05:04:01.146Z,99.9
2022-11-05T05:05:01.137Z,99.9
2022-11-05T05:06:03.916Z,99.9
2022-11-05T05:07:01.176Z,99.9
2022-11-05T05:08:01.797Z,99.9
2022-11-05T05:09:02.212Z,99.9
2022-11-05T05:10:01.671Z,99.9
2022-11-05T05:11:04.248Z,99.9
2022-11-05T05:12:01.104Z,99.9
2022-11-05T05:13:01.112Z,99.9
2022-11-05T05:14:01.116Z,99.9
2022-11-05T05:15:01.233Z,99.9
2022-11-05T05:16:01.044Z,99.9
2022-11-05T05:17:01.290Z,99.9
2022-11-05T05:18:01.308Z,99.9
2022-11-05T05:19:01.045Z,99.9
2022-11-05T05:20:01.047Z,99.9
2022-11-05T05:21:01.961Z,99.9
2022-11-05T05:22:01.198Z,99.9
2022-11-05T05:23:01.334Z,99.9
2022-11-05T05:24:01.855Z,99.9
2022-11-05T05:25:01.339Z,99.9
2022-11-05T05:26:01.462Z,99.9
2022-11-05T05:27:02.111Z,99.9
2022-11-05T05:28:01.897Z,99.9
2022-11-05T05:29:01.079Z,99.9
2022-11-05T05:30:01.069Z,99.9
2022-11-05T05:31:01.118Z,99.9
2022-11-05T05:32:01.041Z,99.9
2022-11-05T05:33:01.118Z,99.9
2022-11-05T05:34:01.382Z,99.9
2022-11-05T05:35:00.702Z,99.9
2022-11-05T05:36:00.312Z,99.9
2022-11-05T05:36:59.875Z,99.9
2022-11-05T05:37:59.416Z,99.9
2022-11-05T05:39:02.071Z,99.9
2022-11-05T05:40:01.051Z,99.9
2022-11-05T05:41:01.089Z,99.9
2022-11-05T05:42:01.674Z,99.9
2022-11-05T05:43:01.165Z,99.9
2022-11-05T05:44:00.801Z,99.9
2022-11-05T05:45:00.488Z,99.9
2022-11-05T05:46:00.052Z,99.9
2022-11-05T05:46:59.683Z,99.9
2022-11-05T05:48:01.285Z,99.9
2022-11-05T05:49:00.992Z,99.9
2022-11-05T05:50:01.114Z,99.9
2022-11-05T05:51:01.395Z,99.9
2022-11-05T05:52:02.019Z,99.9
2022-11-05T05:53:02.680Z,99.9
2022-11-05T05:54:01.196Z,99.9
2022-11-05T05:55:01.150Z,99.9
2022-11-05T05:56:01.063Z,99.9
2022-11-05T05:57:01.076Z,99.9
2022-11-05T05:58:01.647Z,99.9
2022-11-05T05:59:01.567Z,99.9
2022-11-05T06:00:02.161Z,99.9
2022-11-05T06:01:01.294Z,99.9
2022-11-05T06:02:01.236Z,99.9
2022-11-05T06:03:01.189Z,99.9
2022-11-05T06:04:04.864Z,99.9
2022-11-05T06:05:01.914Z,99.9
2022-11-05T06:06:01.186Z,99.9
2022-11-05T06:07:01.453Z,99.9
2022-11-05T06:08:00.836Z,99.9
2022-11-05T06:09:07.774Z,99.9
2022-11-05T06:10:01.204Z,99.9
2022-11-05T06:11:01.296Z,99.9
2022-11-05T06:12:01.975Z,99.9
2022-11-05T06:13:02.603Z,99.9
2022-11-05T06:14:11.205Z,99.9
2022-11-05T06:15:01.485Z,99.9
2022-11-05T06:16:01.188Z,99.9
2022-11-05T06:17:01.207Z,99.9
2022-11-05T06:18:01.061Z,99.9
2022-11-05T06:19:13.863Z,99.9
2022-11-05T06:20:00.817Z,99.9
2022-11-05T06:21:01.927Z,99.9
2022-11-05T06:22:01.437Z,99.9
2022-11-05T06:23:01.164Z,99.9
2022-11-05T06:24:01.256Z,99.9
2022-11-05T06:25:01.855Z,99.9
2022-11-05T06:26:01.223Z,99.9
2022-11-05T06:27:01.094Z,99.9
2022-11-05T06:28:00.732Z,99.9
2022-11-05T06:29:00.318Z,99.9
2022-11-05T06:30:00.229Z,99.9
2022-11-05T06:30:59.947Z,99.9
2022-11-05T06:31:59.647Z,99.9
2022-11-05T06:33:01.276Z,99.9
2022-11-05T06:34:01.907Z,99.9
2022-11-05T06:35:00.875Z,99.9
2022-11-05T06:36:01.042Z,99.9
2022-11-05T06:37:01.051Z,99.9
2022-11-05T06:38:01.066Z,99.9
2022-11-05T06:39:01.070Z,99.9
2022-11-05T06:40:01.155Z,99.9
2022-11-05T06:41:05.816Z,99.9
2022-11-05T06:42:17.994Z,99.9
2022-11-05T06:43:01.452Z,99.9
2022-11-05T06:44:01.193Z,99.9
2022-11-05T06:45:01.056Z,99.9
2022-11-05T06:46:01.064Z,99.9
2022-11-05T06:47:01.752Z,99.9
2022-11-05T06:48:01.407Z,99.9
2022-11-05T06:49:01.136Z,99.9
2022-11-05T06:50:01.478Z,99.9
2022-11-05T06:51:01.460Z,99.9
2022-11-05T06:52:02.196Z,99.9
2022-11-05T06:53:01.123Z,99.9
2022-11-05T06:54:01.132Z,99.9
2022-11-05T06:55:01.461Z,99.9
2022-11-05T06:56:01.150Z,99.9
2022-11-05T06:57:01.167Z,99.9
2022-11-05T06:58:01.336Z,99.9
2022-11-05T06:59:01.337Z,99.9
2022-11-05T07:00:07.459Z,99.9
2022-11-05T07:01:01.186Z,99.9
2022-11-05T07:02:01.938Z,99.9
2022-11-05T07:03:01.091Z,99.9
2022-11-05T07:04:01.100Z,99.9
2022-11-05T07:05:01.799Z,99.9
2022-11-05T07:06:01.487Z,99.9
2022-11-05T07:07:01.109Z,99.9
2022-11-05T07:08:01.096Z,99.9
2022-11-05T07:09:00.916Z,99.9
2022-11-05T07:10:01.715Z,99.9
2022-11-05T07:11:00.627Z,99.9
2022-11-05T07:12:00.540Z,99.9
2022-11-05T07:13:03.724Z,99.9
2022-11-05T07:14:00.769Z,99.9
2022-11-05T07:15:00.441Z,99.9
2022-11-05T07:16:00.121Z,99.9
2022-11-05T07:16:59.732Z,99.9
2022-11-05T07:18:03.177Z,99.9
2022-11-05T07:19:01.488Z,99.9
2022-11-05T07:20:01.111Z,99.9
2022-11-05T07:21:01.090Z,99.9
2022-11-05T07:22:01.101Z,99.9
2022-11-05T07:23:01.116Z,99.9
2022-11-05T07:24:01.107Z,99.9
2022-11-05T07:25:01.387Z,99.9
2022-11-05T07:26:01.400Z,99.9
2022-11-05T07:27:01.138Z,99.9
2022-11-05T07:28:01.129Z,99.9
2022-11-05T07:29:00.763Z,99.9
2022-11-05T07:30:00.435Z,99.9
2022-11-05T07:31:00.129Z,99.9
2022-11-05T07:31:59.828Z,99.9
2022-11-05T07:33:02.496Z,99.9
2022-11-05T07:34:01.117Z,99.9
2022-11-05T07:35:00.756Z,99.9
2022-11-05T07:36:00.392Z,99.9
2022-11-05T07:36:59.951Z,99.9
2022-11-05T07:37:59.647Z,99.9
2022-11-05T07:39:01.283Z,99.9
2022-11-05T07:40:01.940Z,99.9
2022-11-05T07:41:01.049Z,99.9
2022-11-05T07:42:01.706Z,99.9
2022-11-05T07:43:01.053Z,99.9
2022-11-05T07:44:01.089Z,99.9
2022-11-05T07:45:01.410Z,99.9
2022-11-05T07:46:01.190Z,99.9
2022-11-05T07:47:01.180Z,99.9
2022-11-05T07:48:01.049Z,99.9
2022-11-05T07:49:00.749Z,99.9
2022-11-05T07:50:00.530Z,99.9
2022-11-05T07:51:00.102Z,99.9
2022-11-05T07:51:59.750Z,99.9
2022-11-05T07:54:01.395Z,99.9
2022-11-05T07:55:00.998Z,99.9
2022-11-05T07:56:01.053Z,99.9
2022-11-05T07:57:01.129Z,99.9
2022-11-05T07:58:01.139Z,99.9
2022-11-05T07:59:01.129Z,99.9
2022-11-05T08:00:01.467Z,99.9
2022-11-05T08:01:02.449Z,99.9
2022-11-05T08:02:02.477Z,99.9
2022-11-05T08:03:07.212Z,99.9
2022-11-05T08:04:01.323Z,99.9
2022-11-05T08:05:02.426Z,99.9
2022-11-05T08:06:01.073Z,99.9
2022-11-05T08:07:01.076Z,99.9
2022-11-05T08:08:01.084Z,99.9
2022-11-05T08:09:00.774Z,99.9
2022-11-05T08:10:00.865Z,99.9
2022-11-05T08:11:01.154Z,99.9
2022-11-05T08:12:03.160Z,99.9
2022-11-05T08:13:01.859Z,99.9
2022-11-05T08:14:01.708Z,99.9
2022-11-05T08:15:01.727Z,99.9
2022-11-05T08:16:01.334Z,99.9
2022-11-05T08:17:01.134Z,99.9
2022-11-05T08:18:01.169Z,99.9
2022-11-05T08:19:01.249Z,99.9
2022-11-05T08:20:01.860Z,99.9
2022-11-05T08:21:01.855Z,99.9
2022-11-05T08:22:01.304Z,99.9
2022-11-05T08:23:01.311Z,99.9
2022-11-05T08:24:02.436Z,99.9
2022-11-05T08:25:06.752Z,99.5
2022-11-05T08:26:01.072Z,99.5
2022-11-05T08:27:01.039Z,99.7
2022-11-05T08:28:01.247Z,99.8
2022-11-05T08:29:00.703Z,99.8
2022-11-05T08:30:00.299Z,98.4
2022-11-05T08:30:59.906Z,96.4
2022-11-05T08:31:59.516Z,95.2
2022-11-05T08:33:01.435Z,93.4
2022-11-05T08:34:02.785Z,92.9
2022-11-05T08:35:03.063Z,91.5
2022-11-05T08:36:01.169Z,91.7
2022-11-05T08:37:01.968Z,92.2
2022-11-05T08:38:01.752Z,91.8
2022-11-05T08:39:01.085Z,91.2
2022-11-05T08:40:01.080Z,91
2022-11-05T08:41:01.448Z,91.2
2022-11-05T08:42:01.047Z,91.1
2022-11-05T08:43:01.101Z,91.3
2022-11-05T08:44:01.113Z,90.4
2022-11-05T08:45:01.040Z,89.7
2022-11-05T08:46:01.050Z,90
2022-11-05T08:47:01.146Z,90.5
2022-11-05T08:48:01.120Z,90.5
2022-11-05T08:49:01.283Z,89.5
2022-11-05T08:50:01.266Z,88.3
2022-11-05T08:51:04.015Z,88.5
2022-11-05T08:52:01.155Z,89.1
2022-11-05T08:53:01.090Z,89.3
2022-11-05T08:54:01.059Z,89.2
2022-11-05T08:55:01.695Z,88.3
2022-11-05T08:56:01.048Z,88.9
2022-11-05T08:57:01.080Z,89.4
2022-11-05T08:58:01.069Z,88.8
2022-11-05T08:59:01.503Z,89.7
2022-11-05T09:00:01.215Z,88.4
2022-11-05T09:01:08.813Z,84.3
2022-11-05T09:02:01.938Z,81.1
2022-11-05T09:03:01.769Z,81.9
2022-11-05T09:04:01.232Z,81.3
2022-11-05T09:05:01.132Z,82.1
2022-11-05T09:06:01.078Z,82.2
2022-11-05T09:07:01.063Z,80.4
2022-11-05T09:08:01.810Z,78.8
2022-11-05T09:09:01.957Z,76.9
2022-11-05T09:10:01.383Z,75
2022-11-05T09:11:00.696Z,74.4
2022-11-05T09:12:15.878Z,71.3
2022-11-05T09:13:01.570Z,69.2
2022-11-05T09:14:01.129Z,67.4
2022-11-05T09:15:01.798Z,66.7
2022-11-05T09:16:01.494Z,62.4
2022-11-05T09:17:02.548Z,61.5
2022-11-05T09:18:02.297Z,59.6
2022-11-05T09:19:02.949Z,57.4
2022-11-05T09:20:01.155Z,59.2
2022-11-05T09:21:01.139Z,58
2022-11-05T09:22:01.178Z,57.7
2022-11-05T09:23:01.162Z,54.9
2022-11-05T09:24:05.802Z,53.8
2022-11-05T09:25:01.433Z,53.4
2022-11-05T09:26:01.081Z,53.7
2022-11-05T09:27:01.039Z,54.4
2022-11-05T09:28:01.039Z,55.5
2022-11-05T09:29:13.171Z,55.6
2022-11-05T09:30:01.107Z,55.1
2022-11-05T09:31:01.066Z,53.9
2022-11-05T09:32:01.366Z,53.4
2022-11-05T09:33:03.876Z,53.3
2022-11-05T09:34:11.046Z,53.8
2022-11-05T09:35:01.551Z,53.2
2022-11-05T09:36:01.135Z,52.3
2022-11-05T09:37:01.149Z,52.1
2022-11-05T09:38:01.477Z,51.8
2022-11-05T09:39:14.676Z,50.7
2022-11-05T09:40:01.167Z,51.2
2022-11-05T09:41:01.170Z,50.9
2022-11-05T09:42:01.158Z,50.6
2022-11-05T09:43:01.799Z,50.9
2022-11-05T09:44:16.740Z,51.5
2022-11-05T09:45:02.294Z,52.6
2022-11-05T09:46:01.785Z,53
2022-11-05T09:47:01.433Z,52.7
2022-11-05T09:48:02.127Z,53
2022-11-05T09:49:01.110Z,53.2
2022-11-05T09:50:01.204Z,53.4
2022-11-05T09:51:02.084Z,52.5
2022-11-05T09:52:01.189Z,52.7
2022-11-05T09:53:03.881Z,51.8
2022-11-05T09:54:01.954Z,52
2022-11-05T09:55:01.147Z,51.7
2022-11-05T09:56:01.153Z,51.2
2022-11-05T09:57:01.804Z,51.6
2022-11-05T09:58:01.066Z,53
2022-11-05T09:59:01.073Z,56.2
2022-11-05T10:00:01.163Z,56
2022-11-05T10:01:01.270Z,54.8
2022-11-05T10:02:01.540Z,53
2022-11-05T10:03:02.073Z,52
2022-11-05T10:04:02.200Z,51.6
2022-11-05T10:05:05.004Z,51.8
2022-11-05T10:06:01.122Z,51.4
2022-11-05T10:07:01.138Z,51.5
2022-11-05T10:08:01.155Z,51.3
2022-11-05T10:09:01.483Z,50.5
2022-11-05T10:10:02.679Z,50.1
2022-11-05T10:11:02.269Z,50.1
2022-11-05T10:12:01.155Z,50.7
2022-11-05T10:13:01.095Z,50.7
2022-11-05T10:14:01.045Z,51.3
2022-11-05T10:15:00.761Z,50.4
2022-11-05T10:16:00.352Z,48.7
2022-11-05T10:17:00.076Z,47.9
2022-11-05T10:17:59.754Z,47.6
2022-11-05T10:19:01.436Z,47.4
2022-11-05T10:20:02.285Z,47.3
2022-11-05T10:21:02.885Z,46.5
2022-11-05T10:22:08.642Z,46.5
2022-11-05T10:23:01.050Z,46.5
2022-11-05T10:24:01.119Z,46.6
2022-11-05T10:25:01.140Z,46.4
2022-11-05T10:26:01.056Z,46.7
2022-11-05T10:27:01.057Z,46.9
2022-11-05T10:28:01.338Z,47.2
2022-11-05T10:29:01.342Z,47.7
2022-11-05T10:30:01.491Z,47.6
2022-11-05T10:31:01.097Z,47.3
2022-11-05T10:32:01.099Z,47.2
2022-11-05T10:33:01.742Z,46.6
2022-11-05T10:34:01.094Z,45.9
2022-11-05T10:35:01.303Z,43.7
2022-11-05T10:36:01.486Z,40.7
2022-11-05T10:37:02.555Z,40.3
2022-11-05T10:38:01.224Z,40.4
2022-11-05T10:39:01.059Z,40.5
2022-11-05T10:40:01.063Z,40.5
2022-11-05T10:41:01.069Z,40.7
2022-11-05T10:42:01.050Z,42.6
2022-11-05T10:43:01.038Z,45.7
2022-11-05T10:44:01.150Z,45.5
2022-11-05T10:45:01.460Z,41
2022-11-05T10:46:01.190Z,37
2022-11-05T10:47:01.043Z,34.7
2022-11-05T10:48:01.149Z,33.1
2022-11-05T10:49:01.068Z,33.2
2022-11-05T10:50:00.726Z,32.8
2022-11-05T10:51:00.375Z,32.7
2022-11-05T10:51:59.946Z,30
2022-11-05T10:52:59.566Z,28.4
2022-11-05T10:54:02.299Z,27.8
2022-11-05T10:55:01.146Z,27.3
2022-11-05T10:56:01.814Z,27.3
2022-11-05T10:57:01.861Z,27.9
2022-11-05T10:58:01.043Z,26.8
2022-11-05T10:59:01.138Z,26.6
2022-11-05T11:00:01.044Z,27
2022-11-05T11:01:01.145Z,27
2022-11-05T11:02:01.461Z,27.2
2022-11-05T11:03:01.717Z,27.8
2022-11-05T11:04:01.138Z,28.6
2022-11-05T11:05:02.914Z,26.9
2022-11-05T11:06:01.098Z,24.9
2022-11-05T11:07:01.101Z,23.9
2022-11-05T11:08:01.133Z,24.1
2022-11-05T11:09:01.832Z,23.3
2022-11-05T11:10:06.227Z,23.4
2022-11-05T11:11:08.746Z,23.4
2022-11-05T11:12:01.132Z,23.7
2022-11-05T11:13:02.186Z,23.3
2022-11-05T11:14:01.459Z,23.3
2022-11-05T11:15:07.249Z,21.8
2022-11-05T11:16:01.161Z,20.6
2022-11-05T11:17:01.970Z,19.1
2022-11-05T11:18:01.761Z,19.1
2022-11-05T11:19:01.049Z,19.1
2022-11-05T11:20:09.968Z,19.9
2022-11-05T11:21:01.728Z,19.9
2022-11-05T11:22:02.669Z,19.7
2022-11-05T11:23:01.628Z,19.6
2022-11-05T11:24:01.617Z,19.3
2022-11-05T11:25:13.458Z,18.9
2022-11-05T11:26:01.083Z,18.5
2022-11-05T11:27:01.135Z,18.9
2022-11-05T11:28:01.131Z,19.3
2022-11-05T11:29:01.552Z,19.6
2022-11-05T11:30:16.008Z,19.1
2022-11-05T11:31:01.563Z,19
2022-11-05T11:32:01.176Z,19.1
2022-11-05T11:33:01.051Z,19.2
2022-11-05T11:34:01.067Z,19.8
2022-11-05T11:35:01.073Z,19.6
2022-11-05T11:36:03.940Z,19.6
2022-11-05T11:37:01.866Z,19.3
2022-11-05T11:38:01.068Z,19.4
2022-11-05T11:39:01.108Z,18.6
2022-11-05T11:40:01.124Z,17.9
2022-11-05T11:41:01.453Z,18
2022-11-05T11:42:01.056Z,16.9
2022-11-05T11:43:01.053Z,17.4
2022-11-05T11:44:01.615Z,17.7
2022-11-05T11:45:01.131Z,16.7
2022-11-05T11:46:05.551Z,16.3
2022-11-05T11:47:01.345Z,16.6
2022-11-05T11:48:01.497Z,16.6
2022-11-05T11:49:02.071Z,16.5
2022-11-05T11:50:01.169Z,16.6
2022-11-05T11:51:01.124Z,16.2
2022-11-05T11:52:01.777Z,16.6
2022-11-05T11:53:01.779Z,15.8
2022-11-05T11:54:01.399Z,16.1
2022-11-05T11:55:02.041Z,15.7
2022-11-05T11:56:02.171Z,16.5
2022-11-05T11:57:01.105Z,16.7
2022-11-05T11:58:01.107Z,16.8
2022-11-05T11:59:01.115Z,16.8
2022-11-05T12:00:09.750Z,15.8
2022-11-05T12:01:01.858Z,15.7
2022-11-05T12:02:02.465Z,16
2022-11-05T12:03:02.613Z,16.5
2022-11-05T12:04:01.775Z,16.8
2022-11-05T12:05:01.748Z,17.1
2022-11-05T12:06:01.183Z,17.2
2022-11-05T12:07:01.295Z,15.9
2022-11-05T12:08:01.233Z,16.4
2022-11-05T12:09:06.514Z,16.6
2022-11-05T12:10:01.464Z,16.5
2022-11-05T12:11:01.074Z,15.2
2022-11-05T12:12:01.106Z,14.7
2022-11-05T12:13:01.120Z,14.6
2022-11-05T12:14:01.113Z,15
2022-11-05T12:15:01.931Z,17.2
2022-11-05T12:16:01.453Z,17.9
2022-11-05T12:17:02.815Z,17.7
2022-11-05T12:18:01.259Z,17.9
2022-11-05T12:19:01.160Z,16.6
2022-11-05T12:20:01.180Z,16.2
2022-11-05T12:21:01.164Z,14.9
2022-11-05T12:22:01.081Z,15
2022-11-05T12:23:01.075Z,14.3
2022-11-05T12:24:01.080Z,14.2
2022-11-05T12:25:01.120Z,14.4
2022-11-05T12:26:03.799Z,14.8
2022-11-05T12:27:03.950Z,15.1
2022-11-05T12:28:02.589Z,15.3
2022-11-05T12:30:01.166Z,14.5
2022-11-05T12:31:01.870Z,14.1
2022-11-05T12:32:01.128Z,14.3
2022-11-05T12:33:01.907Z,14.2
2022-11-05T12:33:59.898Z,14.1
2022-11-05T12:34:59.504Z,14
2022-11-05T12:36:02.693Z,13.9
2022-11-05T12:37:01.129Z,13.9
2022-11-05T12:38:01.765Z,12.5
2022-11-05T12:39:01.878Z,13.6
2022-11-05T12:40:01.859Z,13.7
2022-11-05T12:41:01.096Z,12.3
2022-11-05T12:42:01.102Z,11.4
2022-11-05T12:43:01.111Z,10.6
2022-11-05T12:44:01.057Z,9.4
2022-11-05T12:45:01.116Z,9.4
2022-11-05T12:46:01.031Z,9.4
2022-11-05T12:47:01.064Z,9.4
2022-11-05T12:48:01.121Z,9.4
2022-11-05T12:49:01.152Z,9.4
2022-11-05T12:50:03.938Z,9.4
2022-11-05T12:51:03.909Z,8.2
2022-11-05T12:52:01.080Z,8.7
2022-11-05T12:53:01.553Z,8.9
2022-11-05T12:54:01.043Z,8.6
2022-11-05T12:55:01.077Z,8.9
2022-11-05T12:56:08.393Z,8.8
2022-11-05T12:57:01.827Z,9.4
2022-11-05T12:58:04.509Z,10.2
2022-11-05T12:59:01.402Z,10.6
2022-11-05T13:00:02.029Z,10.2
2022-11-05T13:01:11.599Z,9.4
2022-11-05T13:02:04.733Z,8.7
2022-11-05T13:03:02.173Z,7.8
2022-11-05T13:04:01.682Z,8.3
2022-11-05T13:05:01.132Z,8.8
2022-11-05T13:06:14.152Z,8.9
2022-11-05T13:07:01.052Z,9.3
2022-11-05T13:08:01.755Z,9.8
2022-11-05T13:09:01.577Z,10.2
2022-11-05T13:10:00.780Z,10.8
2022-11-05T13:11:00.459Z,9.4
2022-11-05T13:12:00.034Z,9.8
2022-11-05T13:12:59.583Z,9.3
2022-11-05T13:14:01.679Z,9.8
2022-11-05T13:15:01.772Z,8.9
2022-11-05T13:16:01.262Z,9
2022-11-05T13:17:01.107Z,7.9
2022-11-05T13:18:01.120Z,8.5
2022-11-05T13:19:03.868Z,9.1
2022-11-05T13:20:01.744Z,8.7
2022-11-05T13:21:01.948Z,9.4
2022-11-05T13:22:02.192Z,8.7
2022-11-05T13:23:01.054Z,9.2